createdAt,value
2022-08-27T00:01:22.008Z,99.90
2022-08-27T00:03:48.738Z,99.90
2022-08-27T00:06:17.310Z,99.90
2022-08-27T00:08:44.654Z,99.90
2022-08-27T00:11:12.459Z,99.90
2022-08-27T00:13:39.907Z,99.90
2022-08-27T00:16:09.153Z,99.90
2022-08-27T00:18:37.223Z,99.90
2022-08-27T00:21:04.538Z,99.90
2022-08-27T00:23:34.537Z,99.90
2022-08-27T00:26:01.379Z,99.90
2022-08-27T00:28:28.975Z,99.90
2022-08-27T00:30:56.242Z,99.90
2022-08-27T00:33:23.513Z,99.90
2022-08-27T00:35:50.978Z,99.90
2022-08-27T00:38:18.633Z,99.90
2022-08-27T00:40:45.649Z,99.90
2022-08-27T00:43:12.692Z,99.90
2022-08-27T00:45:43.303Z,99.90
2022-08-27T00:48:15.267Z,99.90
2022-08-27T00:50:53.391Z,99.90
2022-08-27T00:53:23.477Z,99.90
2022-08-27T00:55:59.875Z,99.90
2022-08-27T00:58:37.146Z,99.90
2022-08-27T01:01:07.658Z,99.90
2022-08-27T01:03:35.477Z,99.90
2022-08-27T01:06:05.001Z,99.90
2022-08-27T01:08:37.060Z,99.90
2022-08-27T01:11:06.215Z,99.90
2022-08-27T01:13:59.043Z,99.90
2022-08-27T01:16:25.284Z,99.90
2022-08-27T01:18:53.726Z,99.90
2022-08-27T01:21:41.640Z,99.90
2022-08-27T01:24:33.338Z,99.90
2022-08-27T01:27:01.014Z,99.90
2022-08-27T01:29:28.405Z,99.90
2022-08-27T01:32:05.480Z,99.90
2022-08-27T01:34:32.276Z,99.90
2022-08-27T01:36:58.925Z,99.90
2022-08-27T01:39:25.582Z,99.90
2022-08-27T01:41:52.712Z,99.90
2022-08-27T01:44:21.035Z,99.90
2022-08-27T01:46:47.911Z,99.90
2022-08-27T01:49:14.601Z,99.90
2022-08-27T01:51:41.797Z,99.90
2022-08-27T01:54:08.449Z,99.90
2022-08-27T01:56:35.083Z,99.90
2022-08-27T01:59:01.762Z,99.90
2022-08-27T02:01:28.480Z,99.90
2022-08-27T02:03:55.808Z,99.90
2022-08-27T02:06:22.538Z,99.90
2022-08-27T02:08:49.226Z,99.90
2022-08-27T02:11:15.861Z,99.90
2022-08-27T02:13:42.526Z,99.90
2022-08-27T02:16:09.365Z,99.90
2022-08-27T02:18:38.352Z,99.90
2022-08-27T02:21:08.748Z,99.90
2022-08-27T02:23:35.516Z,99.90
2022-08-27T02:26:02.164Z,99.90
2022-08-27T02:28:28.943Z,99.90
2022-08-27T02:30:55.748Z,99.90
2022-08-27T02:33:22.520Z,99.90
2022-08-27T02:35:49.927Z,99.90
2022-08-27T02:38:16.590Z,99.90
2022-08-27T02:40:43.254Z,99.90
2022-08-27T02:43:09.906Z,99.90
2022-08-27T02:45:42.415Z,99.90
2022-08-27T02:48:09.718Z,99.90
2022-08-27T02:50:36.686Z,99.90
2022-08-27T02:53:05.923Z,99.90
2022-08-27T02:55:33.430Z,99.90
2022-08-27T02:58:00.068Z,99.90
2022-08-27T03:00:28.691Z,99.90
2022-08-27T03:02:56.282Z,99.90
2022-08-27T03:05:23.946Z,99.90
2022-08-27T03:07:50.767Z,99.90
2022-08-27T03:10:19.560Z,99.90
2022-08-27T03:12:47.157Z,99.90
2022-08-27T03:15:18.151Z,99.90
2022-08-27T03:18:04.769Z,99.90
2022-08-27T03:20:31.575Z,99.90
2022-08-27T03:22:58.366Z,99.90
2022-08-27T03:25:25.414Z,99.90
2022-08-27T03:27:52.495Z,99.90
2022-08-27T03:30:21.436Z,99.90
2022-08-27T03:32:48.330Z,99.90
2022-08-27T03:35:15.145Z,99.90
2022-08-27T03:37:42.158Z,99.90
2022-08-27T03:40:09.564Z,99.90
2022-08-27T03:42:37.400Z,99.90
2022-08-27T03:45:04.907Z,99.90
2022-08-27T03:47:32.294Z,99.90
2022-08-27T03:50:00.626Z,99.90
2022-08-27T03:52:27.838Z,99.90
2022-08-27T03:54:54.476Z,99.90
2022-08-27T03:57:21.171Z,99.90
2022-08-27T03:59:47.812Z,99.90
2022-08-27T04:02:19.729Z,99.90
2022-08-27T04:04:46.372Z,99.90
2022-08-27T04:07:13.250Z,99.90
2022-08-27T04:09:39.934Z,99.90
2022-08-27T04:12:06.830Z,99.90
2022-08-27T04:14:34.647Z,99.90
2022-08-27T04:17:02.213Z,99.90
2022-08-27T04:19:32.249Z,99.90
2022-08-27T04:22:01.346Z,99.90
2022-08-27T04:24:29.324Z,99.90
2022-08-27T04:26:56.006Z,99.90
2022-08-27T04:29:22.683Z,99.90
2022-08-27T04:31:49.479Z,99.90
2022-08-27T04:34:17.698Z,99.90
2022-08-27T04:36:46.000Z,99.90
2022-08-27T04:39:14.363Z,99.90
2022-08-27T04:41:41.572Z,99.90
2022-08-27T04:44:10.442Z,99.90
2022-08-27T04:46:40.185Z,99.90
2022-08-27T04:49:15.283Z,99.90
2022-08-27T04:51:43.014Z,99.90
2022-08-27T04:54:10.579Z,99.90
2022-08-27T04:56:38.215Z,99.90
2022-08-27T04:59:08.037Z,99.90
2022-08-27T05:01:34.992Z,99.90
2022-08-27T05:04:01.754Z,99.90
2022-08-27T05:06:28.673Z,99.90
2022-08-27T05:08:56.023Z,99.90
2022-08-27T05:11:26.223Z,99.90
2022-08-27T05:13:53.017Z,99.90
2022-08-27T05:16:22.702Z,99.90
2022-08-27T05:18:51.685Z,99.90
2022-08-27T05:21:24.662Z,99.90
2022-08-27T05:23:52.561Z,99.90
2022-08-27T05:26:20.128Z,99.90
2022-08-27T05:28:46.807Z,99.90
2022-08-27T05:31:15.712Z,99.90
2022-08-27T05:33:43.846Z,99.90
2022-08-27T05:36:20.617Z,99.90
2022-08-27T05:38:51.529Z,99.90
2022-08-27T05:41:22.096Z,99.90
2022-08-27T05:43:50.549Z,99.90
2022-08-27T05:46:20.426Z,99.90
2022-08-27T05:48:48.238Z,99.90
2022-08-27T05:51:26.040Z,99.90
2022-08-27T05:54:06.807Z,99.90
2022-08-27T05:56:38.131Z,99.90
2022-08-27T05:59:24.042Z,99.90
2022-08-27T06:01:52.193Z,99.90
2022-08-27T06:04:20.767Z,99.90
2022-08-27T06:06:49.112Z,99.90
2022-08-27T06:09:22.175Z,99.90
2022-08-27T06:11:49.266Z,99.90
2022-08-27T06:14:16.219Z,99.90
2022-08-27T06:16:42.899Z,99.90
2022-08-27T06:19:12.148Z,99.90
2022-08-27T06:21:40.527Z,99.90
2022-08-27T06:24:07.486Z,99.90
2022-08-27T06:26:34.709Z,99.90
2022-08-27T06:29:07.103Z,99.90
2022-08-27T06:31:35.589Z,99.90
2022-08-27T06:34:07.553Z,99.90
2022-08-27T06:36:38.217Z,99.90
2022-08-27T06:39:05.788Z,99.90
2022-08-27T06:41:34.157Z,99.90
2022-08-27T06:44:01.306Z,99.90
2022-08-27T06:46:29.484Z,99.90
2022-08-27T06:48:59.223Z,99.90
2022-08-27T06:51:31.903Z,99.90
2022-08-27T06:54:02.470Z,99.90
2022-08-27T06:56:31.011Z,99.90
2022-08-27T06:59:00.264Z,99.90
2022-08-27T07:01:31.446Z,99.90
2022-08-27T07:04:00.855Z,99.90
2022-08-27T07:06:29.428Z,99.90
2022-08-27T07:08:57.089Z,99.90
2022-08-27T07:11:24.751Z,99.90
2022-08-27T07:13:52.051Z,99.90
2022-08-27T07:16:23.292Z,99.90
2022-08-27T07:18:52.203Z,99.90
2022-08-27T07:21:22.345Z,99.90
2022-08-27T07:23:51.965Z,99.90
2022-08-27T07:26:19.608Z,99.90
2022-08-27T07:28:47.118Z,99.90
2022-08-27T07:31:20.574Z,99.90
2022-08-27T07:33:51.539Z,99.90
2022-08-27T07:36:21.220Z,99.90
2022-08-27T07:38:52.712Z,99.90
2022-08-27T07:41:32.214Z,99.90
2022-08-27T07:44:19.059Z,99.90
2022-08-27T07:46:48.258Z,99.90
2022-08-27T07:49:19.561Z,99.90
2022-08-27T07:51:46.612Z,99.90
2022-08-27T07:54:13.754Z,99.90
2022-08-27T07:56:40.547Z,99.90
2022-08-27T07:59:08.146Z,99.90
2022-08-27T08:01:35.138Z,99.90
2022-08-27T08:04:02.687Z,99.90
2022-08-27T08:06:29.421Z,99.90
2022-08-27T08:08:56.148Z,99.90
2022-08-27T08:11:22.822Z,99.90
2022-08-27T08:13:49.454Z,99.90
2022-08-27T08:16:16.318Z,99.90
2022-08-27T08:18:43.304Z,99.90
2022-08-27T08:21:13.839Z,99.90
2022-08-27T08:23:41.389Z,99.90
2022-08-27T08:26:08.837Z,99.90
2022-08-27T08:28:37.093Z,99.90
2022-08-27T08:31:05.003Z,99.90
2022-08-27T08:33:32.864Z,99.90
2022-08-27T08:36:06.190Z,99.90
2022-08-27T08:38:33.041Z,99.90
2022-08-27T08:41:00.280Z,99.90
2022-08-27T08:43:35.793Z,99.90
2022-08-27T08:46:31.200Z,99.90
2022-08-27T08:49:06.592Z,99.90
2022-08-27T08:51:41.397Z,99.90
2022-08-27T08:54:19.112Z,99.90
2022-08-27T08:57:07.877Z,99.90
2022-08-27T08:59:38.671Z,99.90
2022-08-27T09:02:13.545Z,99.90
2022-08-27T09:04:42.050Z,99.90
2022-08-27T09:07:26.215Z,99.90
2022-08-27T09:09:58.237Z,99.90
2022-08-27T09:12:30.680Z,99.90
2022-08-27T09:15:15.140Z,99.90
2022-08-27T09:17:42.166Z,99.90
2022-08-27T09:20:13.223Z,99.90
2022-08-27T09:22:59.824Z,99.90
2022-08-27T09:25:33.362Z,99.90
2022-08-27T09:28:04.329Z,99.90
2022-08-27T09:30:40.957Z,99.90
2022-08-27T09:33:07.669Z,99.90
2022-08-27T09:35:46.334Z,99.90
2022-08-27T09:38:26.715Z,99.90
2022-08-27T09:40:53.512Z,99.90
2022-08-27T09:43:23.706Z,99.90
2022-08-27T09:45:54.318Z,99.90
2022-08-27T09:48:25.505Z,99.90
2022-08-27T09:50:55.443Z,99.90
2022-08-27T09:53:28.434Z,99.90
2022-08-27T09:56:04.987Z,99.90
2022-08-27T09:58:47.404Z,99.90
2022-08-27T10:01:24.133Z,99.90
2022-08-27T10:04:02.692Z,99.90
2022-08-27T10:06:32.340Z,99.90
2022-08-27T10:09:25.423Z,99.90
2022-08-27T10:12:33.948Z,99.90
2022-08-27T10:15:03.721Z,99.90
2022-08-27T10:17:33.344Z,99.90
2022-08-27T10:20:30.280Z,99.90
2022-08-27T10:23:31.353Z,99.90
2022-08-27T10:26:18.322Z,99.90
2022-08-27T10:29:03.508Z,99.90
2022-08-27T10:31:47.110Z,99.90
2022-08-27T10:34:31.528Z,99.90
2022-08-27T10:37:36.682Z,99.90
2022-08-27T10:40:29.918Z,99.90
2022-08-27T10:43:13.084Z,99.90
2022-08-27T10:45:50.933Z,99.90
2022-08-27T10:48:46.215Z,99.90
2022-08-27T10:51:23.247Z,99.90
2022-08-27T10:53:52.648Z,99.90
2022-08-27T10:56:42.296Z,99.90
2022-08-27T10:59:43.773Z,99.90
2022-08-27T11:02:36.123Z,99.90
2022-08-27T11:05:19.425Z,99.90
2022-08-27T11:07:53.907Z,99.90
2022-08-27T11:10:30.906Z,99.90
2022-08-27T11:13:05.845Z,99.90
2022-08-27T11:15:38.787Z,99.90
2022-08-27T11:18:08.683Z,99.90
2022-08-27T11:20:44.957Z,99.90
2022-08-27T11:23:22.351Z,99.90
2022-08-27T11:25:59.606Z,99.60
2022-08-27T11:28:38.754Z,99.40
2022-08-27T11:31:11.659Z,99.20
2022-08-27T11:33:50.778Z,99.80
2022-08-27T11:36:45.354Z,99.90
2022-08-27T11:39:25.885Z,99.90
2022-08-27T11:41:59.757Z,99.90
2022-08-27T11:44:27.602Z,99.90
2022-08-27T11:47:13.474Z,99.60
2022-08-27T11:50:05.723Z,99.60
2022-08-27T11:52:39.443Z,99.60
2022-08-27T11:55:23.742Z,98.90
2022-08-27T11:58:05.338Z,98.90
2022-08-27T12:00:35.031Z,98.80
2022-08-27T12:03:05.852Z,98.60
2022-08-27T12:05:37.543Z,98.30
2022-08-27T12:08:21.776Z,98.40
2022-08-27T12:10:54.874Z,98.30
2022-08-27T12:13:40.548Z,98.20
2022-08-27T12:16:27.165Z,97.60
2022-08-27T12:19:13.039Z,97.70
2022-08-27T12:21:39.648Z,97.50
2022-08-27T12:24:32.043Z,97.60
2022-08-27T12:27:24.695Z,97.50
2022-08-27T12:30:02.606Z,97.30
2022-08-27T12:32:34.939Z,97.40
2022-08-27T12:35:37.257Z,96.90
2022-08-27T12:38:21.924Z,96.90
2022-08-27T12:40:52.007Z,96.90
2022-08-27T12:43:21.834Z,96.90
2022-08-27T12:45:49.961Z,96.90
2022-08-27T12:48:24.058Z,96.80
2022-08-27T12:51:00.843Z,96.20
2022-08-27T12:53:43.471Z,96.00
2022-08-27T12:56:39.631Z,95.80
2022-08-27T12:59:29.632Z,95.00
2022-08-27T13:02:32.097Z,94.60
2022-08-27T13:05:10.016Z,94.70
2022-08-27T13:07:44.662Z,94.20
2022-08-27T13:10:14.148Z,93.80
2022-08-27T13:12:42.826Z,93.80
2022-08-27T13:15:14.405Z,93.50
2022-08-27T13:17:45.137Z,93.90
2022-08-27T13:20:22.361Z,93.90
2022-08-27T13:22:50.847Z,93.60
2022-08-27T13:25:28.772Z,93.70
2022-08-27T13:28:04.048Z,93.40
2022-08-27T13:30:35.562Z,93.20
2022-08-27T13:33:05.858Z,93.10
2022-08-27T13:35:32.800Z,93.20
2022-08-27T13:38:02.331Z,93.20
2022-08-27T13:40:32.296Z,92.80
2022-08-27T13:43:08.802Z,92.30
2022-08-27T13:45:38.528Z,92.80
2022-08-27T13:48:06.684Z,91.90
2022-08-27T13:50:34.998Z,91.30
2022-08-27T13:53:26.278Z,91.30
2022-08-27T13:55:54.784Z,91.40
2022-08-27T13:58:28.685Z,91.40
2022-08-27T14:01:07.035Z,91.30
2022-08-27T14:03:36.757Z,90.90
2022-08-27T14:06:03.600Z,90.10
2022-08-27T14:08:35.809Z,90.00
2022-08-27T14:11:09.567Z,90.20
2022-08-27T14:13:47.624Z,90.00
2022-08-27T14:16:22.073Z,88.70
2022-08-27T14:19:09.036Z,88.10
2022-08-27T14:21:39.552Z,87.50
2022-08-27T14:24:07.149Z,86.90
2022-08-27T14:26:34.374Z,86.40
2022-08-27T14:29:01.066Z,86.40
2022-08-27T14:31:28.593Z,86.90
2022-08-27T14:33:55.420Z,85.80
2022-08-27T14:36:23.909Z,84.50
2022-08-27T14:38:52.533Z,84.20
2022-08-27T14:41:21.534Z,85.00
2022-08-27T14:43:48.883Z,85.30
2022-08-27T14:46:28.567Z,84.50
2022-08-27T14:48:57.896Z,84.30
2022-08-27T14:51:27.380Z,84.10
2022-08-27T14:53:55.819Z,85.10
2022-08-27T14:56:23.984Z,85.80
2022-08-27T14:58:51.435Z,85.30
2022-08-27T15:01:20.544Z,84.90
2022-08-27T15:03:49.298Z,85.40
2022-08-27T15:06:17.621Z,85.40
2022-08-27T15:08:45.039Z,86.00
2022-08-27T15:11:16.771Z,85.00
2022-08-27T15:13:44.214Z,84.80
2022-08-27T15:16:14.802Z,84.50
2022-08-27T15:18:41.552Z,84.00
2022-08-27T15:21:08.377Z,83.20
2022-08-27T15:23:36.627Z,85.20
2022-08-27T15:26:03.323Z,85.70
2022-08-27T15:28:29.982Z,86.50
2022-08-27T15:30:56.678Z,85.70
2022-08-27T15:33:23.482Z,86.70
2022-08-27T15:35:50.158Z,87.00
2022-08-27T15:38:16.850Z,87.10
2022-08-27T15:40:43.748Z,87.50
2022-08-27T15:43:12.017Z,88.00
2022-08-27T15:45:39.150Z,88.20
2022-08-27T15:48:06.025Z,87.90
2022-08-27T15:50:34.336Z,87.90
2022-08-27T15:53:04.865Z,88.40
2022-08-27T15:55:34.822Z,88.20
2022-08-27T15:58:01.635Z,87.60
2022-08-27T16:00:30.019Z,84.50
2022-08-27T16:02:57.394Z,81.80
2022-08-27T16:05:25.194Z,80.60
2022-08-27T16:07:51.854Z,80.80
2022-08-27T16:10:18.673Z,82.50
2022-08-27T16:12:46.180Z,84.00
2022-08-27T16:15:13.454Z,83.80
2022-08-27T16:17:40.409Z,82.20
2022-08-27T16:20:09.057Z,84.50
2022-08-27T16:22:36.391Z,86.60
2022-08-27T16:25:04.498Z,87.70
2022-08-27T16:27:31.437Z,89.20
2022-08-27T16:29:58.103Z,89.70
2022-08-27T16:32:27.772Z,90.00
2022-08-27T16:34:55.941Z,89.80
2022-08-27T16:37:24.326Z,89.80
2022-08-27T16:39:51.302Z,90.10
2022-08-27T16:42:18.092Z,90.00
2022-08-27T16:44:44.864Z,89.90
2022-08-27T16:47:11.605Z,90.20
2022-08-27T16:49:56.847Z,90.30
2022-08-27T16:52:23.908Z,90.00
2022-08-27T16:54:51.885Z,90.00
2022-08-27T16:57:19.038Z,90.00
2022-08-27T16:59:45.799Z,90.20
2022-08-27T17:02:23.455Z,90.20
2022-08-27T17:05:07.186Z,90.10
2022-08-27T17:07:43.938Z,90.20
2022-08-27T17:10:13.179Z,90.30
2022-08-27T17:12:40.766Z,90.40
2022-08-27T17:15:09.602Z,90.70
2022-08-27T17:17:38.742Z,90.60
2022-08-27T17:20:06.448Z,90.70
2022-08-27T17:22:34.909Z,90.90
2022-08-27T17:25:01.661Z,91.10
2022-08-27T17:27:28.314Z,91.10
2022-08-27T17:29:55.014Z,91.00
2022-08-27T17:32:21.905Z,91.00
2022-08-27T17:34:48.552Z,91.30
2022-08-27T17:37:15.207Z,91.20
2022-08-27T17:39:45.377Z,91.30
2022-08-27T17:42:12.125Z,91.40
2022-08-27T17:44:38.969Z,91.30
2022-08-27T17:47:07.898Z,91.50
2022-08-27T17:49:35.185Z,91.70
2022-08-27T17:52:06.878Z,91.90
2022-08-27T17:54:39.450Z,92.10
2022-08-27T17:57:20.222Z,92.10
2022-08-27T17:59:47.423Z,92.20
2022-08-27T18:02:29.961Z,92.50
2022-08-27T18:04:58.034Z,92.50
2022-08-27T18:07:25.169Z,92.80
2022-08-27T18:09:52.371Z,92.80
2022-08-27T18:12:23.440Z,92.80
2022-08-27T18:14:58.829Z,93.00
2022-08-27T18:17:25.482Z,93.10
2022-08-27T18:19:52.137Z,93.30
2022-08-27T18:22:19.494Z,93.40
2022-08-27T18:24:46.151Z,93.60
2022-08-27T18:27:13.010Z,93.50
2022-08-27T18:29:39.630Z,93.70
2022-08-27T18:32:06.299Z,93.90
2022-08-27T18:34:33.003Z,94.10
2022-08-27T18:36:59.642Z,94.10
2022-08-27T18:39:26.530Z,94.40
2022-08-27T18:41:54.088Z,94.60
2022-08-27T18:44:20.747Z,94.50
2022-08-27T18:46:47.588Z,94.80
2022-08-27T18:49:14.509Z,95.20
2022-08-27T18:51:43.618Z,95.10
2022-08-27T18:54:10.754Z,95.30
2022-08-27T18:56:37.449Z,95.50
2022-08-27T18:59:06.772Z,95.70
2022-08-27T19:01:33.839Z,95.80
2022-08-27T19:04:01.042Z,96.00
2022-08-27T19:06:27.770Z,96.20
2022-08-27T19:08:54.505Z,96.20
2022-08-27T19:11:21.170Z,96.30
2022-08-27T19:13:50.692Z,96.30
2022-08-27T19:16:24.791Z,96.60
2022-08-27T19:18:51.928Z,96.40
2022-08-27T19:21:18.565Z,96.60
2022-08-27T19:23:45.249Z,96.50
2022-08-27T19:26:18.059Z,97.00
2022-08-27T19:28:45.224Z,96.60
2022-08-27T19:31:13.596Z,96.80
2022-08-27T19:33:40.950Z,96.60
2022-08-27T19:36:13.746Z,96.70
2022-08-27T19:38:43.001Z,96.70
2022-08-27T19:41:09.662Z,96.90
2022-08-27T19:43:36.430Z,97.20
2022-08-27T19:46:14.191Z,96.80
2022-08-27T19:48:40.934Z,97.00
2022-08-27T19:51:07.781Z,97.10
2022-08-27T19:53:35.472Z,97.10
2022-08-27T19:56:02.283Z,97.00
2022-08-27T19:58:29.241Z,96.80
2022-08-27T20:00:56.014Z,97.00
2022-08-27T20:03:23.126Z,97.00
2022-08-27T20:05:51.947Z,96.90
2022-08-27T20:08:19.886Z,97.10
2022-08-27T20:10:47.107Z,97.30
2022-08-27T20:13:14.437Z,97.00
2022-08-27T20:15:41.811Z,97.10
2022-08-27T20:18:09.587Z,97.20
2022-08-27T20:20:37.378Z,97.30
2022-08-27T20:23:05.161Z,97.20
2022-08-27T20:25:33.457Z,97.50
2022-08-27T20:28:16.413Z,97.70
2022-08-27T20:30:48.776Z,97.80
2022-08-27T20:33:16.492Z,97.70
2022-08-27T20:35:44.344Z,97.40
2022-08-27T20:38:11.202Z,97.80
2022-08-27T20:40:37.924Z,97.40
2022-08-27T20:43:04.690Z,97.50
2022-08-27T20:45:31.516Z,97.60
2022-08-27T20:47:59.086Z,97.50
2022-08-27T20:50:25.983Z,97.80
2022-08-27T20:52:52.785Z,97.70
2022-08-27T20:55:20.183Z,97.70
2022-08-27T20:58:06.895Z,97.70
2022-08-27T21:00:35.265Z,97.80
2022-08-27T21:03:02.160Z,97.60
2022-08-27T21:05:33.516Z,97.50
2022-08-27T21:08:00.603Z,97.70
2022-08-27T21:10:27.306Z,98.10
2022-08-27T21:12:53.970Z,98.00
2022-08-27T21:15:20.816Z,98.00
2022-08-27T21:17:47.729Z,98.20
2022-08-27T21:20:14.642Z,98.30
2022-08-27T21:22:43.188Z,98.10
2022-08-27T21:25:12.152Z,98.50
2022-08-27T21:27:39.605Z,98.20
2022-08-27T21:30:08.400Z,98.10
2022-08-27T21:32:35.152Z,98.10
2022-08-27T21:35:02.031Z,98.00
2022-08-27T21:37:28.853Z,98.20
2022-08-27T21:39:55.553Z,98.10
2022-08-27T21:42:23.162Z,98.40
2022-08-27T21:44:49.831Z,98.50
2022-08-27T21:47:16.629Z,98.70
2022-08-27T21:49:43.602Z,98.50
2022-08-27T21:52:10.541Z,98.80
2022-08-27T21:54:39.629Z,98.60
2022-08-27T21:57:06.565Z,98.60
2022-08-27T21:59:39.020Z,98.70
2022-08-27T22:02:22.931Z,98.40
2022-08-27T22:04:52.548Z,98.80
2022-08-27T22:07:19.408Z,98.90
2022-08-27T22:09:46.410Z,99.00
2022-08-27T22:12:13.080Z,99.10
2022-08-27T22:14:41.089Z,99.20
2022-08-27T22:17:07.759Z,99.00
2022-08-27T22:19:34.449Z,99.10
2022-08-27T22:22:01.127Z,99.20
2022-08-27T22:24:27.871Z,99.10
2022-08-27T22:26:54.574Z,99.50
2022-08-27T22:29:21.289Z,99.50
2022-08-27T22:31:47.989Z,99.60
2022-08-27T22:34:14.943Z,99.70
2022-08-27T22:36:42.353Z,99.50
2022-08-27T22:39:09.108Z,99.60
2022-08-27T22:41:35.851Z,99.50
2022-08-27T22:44:05.224Z,99.70
2022-08-27T22:46:32.029Z,99.60
2022-08-27T22:48:58.893Z,99.60
2022-08-27T22:51:25.686Z,99.80
2022-08-27T22:53:52.374Z,99.70
2022-08-27T22:56:19.299Z,99.80
2022-08-27T22:58:46.492Z,99.70
2022-08-27T23:01:18.166Z,99.50
2022-08-27T23:03:44.960Z,99.50
2022-08-27T23:06:11.840Z,99.50
2022-08-27T23:08:38.653Z,99.40
2022-08-27T23:11:05.534Z,99.80
2022-08-27T23:13:32.995Z,99.80
2022-08-27T23:16:01.408Z,99.90
2022-08-27T23:18:28.498Z,99.80
2022-08-27T23:20:55.578Z,99.90
2022-08-27T23:23:22.636Z,99.70
2022-08-27T23:26:11.958Z,99.80
2022-08-27T23:28:38.653Z,99.90
2022-08-27T23:31:06.125Z,99.90
2022-08-27T23:33:32.822Z,99.90
2022-08-27T23:35:59.533Z,99.90
2022-08-27T23:38:26.287Z,99.90
2022-08-27T23:40:53.336Z,99.90
2022-08-27T23:43:20.578Z,99.90
2022-08-27T23:45:48.029Z,99.90
2022-08-27T23:48:14.788Z,99.90
2022-08-27T23:50:42.183Z,99.90
2022-08-27T23:53:11.379Z,99.90
2022-08-27T23:55:40.289Z,99.90
2022-08-27T23:58:08.220Z,99.90
